Terminal Aerodrome Forecast
Issued by NWS

Home | Current Version | Previous Version | Text Only | Print | Product List | Glossary On
Versions: 1 2 3 4 5 6 7 8 9 10 11 12 13 14 15
000
FTUS46 KMTR 172327
TAFSNS
TAF
KSNS 172327Z 1800/1824 27009KT P6SM FEW060
     FM180300 VRB04KT P6SM SKC
     FM180600 11006KT P6SM SKC
     FM181600 11010KT P6SM SKC
     FM182100 27006KT P6SM SKC=

USA.gov is the U.S. government's official web portal to all federal, state and local government web resources and services.